Time;durP1;ratioP1;P1;durP2;ratioP2;P2;SDS_P1;SDS_P2;PMS_P1;PMS_P2;Temp;Humidity;BMP_temperature;BMP_pressure;BME280_temperature;BME280_humidity;BME280_pressure;Samples;Min_cycle;Max_cycle;Signal;HPM_P1;HPM_P2
2023/01/20 10:22:05;;;;;;;49.08;17.92;;;1.70;99.90;;;;;;5069975;28;20365;-63
2023/01/20 10:24:37;;;;;;;54.95;18.65;;;1.70;99.90;;;;;;5069743;28;20478;-63
2023/01/20 10:27:04;;;;;;;48.17;18.00;;;1.80;99.90;;;;;;5059463;28;20116;-65
2023/01/20 10:29:40;;;;;;;53.30;18.45;;;1.90;99.90;;;;;;5067461;28;20035;-63
2023/01/20 10:32:31;;;;;;;54.45;21.10;;;2.10;99.90;;;;;;5065520;28;20024;-64
2023/01/20 10:35:01;;;;;;;55.63;19.75;;;2.10;99.90;;;;;;5068652;28;20170;-68
2023/01/20 10:37:28;;;;;;;47.25;16.80;;;2.20;99.90;;;;;;5068602;28;20024;-64
2023/01/20 10:40:02;;;;;;;42.20;15.88;;;2.40;99.90;;;;;;5068821;28;20021;-64
2023/01/20 10:42:28;;;;;;;52.42;18.52;;;2.40;99.90;;;;;;5066816;28;20032;-68
2023/01/20 10:44:54;;;;;;;40.88;16.33;;;2.50;99.90;;;;;;5068772;28;20021;-66
2023/01/20 10:47:27;;;;;;;44.10;17.77;;;2.60;99.90;;;;;;5067962;28;20037;-66
2023/01/20 10:50:14;;;;;;;45.83;16.90;;;2.60;99.90;;;;;;5068299;28;20350;-65
2023/01/20 10:53:32;;;;;;;46.03;18.35;;;2.70;99.90;;;;;;5067815;28;20025;-67
2023/01/20 10:56:41;;;;;;;55.13;19.02;;;2.80;99.90;;;;;;5037828;28;20065;-65
2023/01/20 10:59:17;;;;;;;54.50;18.58;;;2.80;99.90;;;;;;5048395;28;20025;-66
2023/01/20 11:01:50;;;;;;;49.30;18.00;;;2.80;99.90;;;;;;5047062;28;20033;-64
2023/01/20 11:04:19;;;;;;;43.47;17.55;;;2.80;99.90;;;;;;5047963;28;20104;-64
2023/01/20 11:07:11;;;;;;;41.30;17.52;;;2.80;99.90;;;;;;5048163;28;20034;-66
2023/01/20 11:09:37;;;;;;;50.17;19.45;;;2.80;99.90;;;;;;5056696;28;20123;-69
2023/01/20 11:12:09;;;;;;;41.03;17.40;;;2.80;99.90;;;;;;5066179;28;20100;-65
2023/01/20 11:14:35;;;;;;;42.92;17.30;;;2.90;99.90;;;;;;5067559;28;20020;-65
2023/01/20 11:17:07;;;;;;;42.42;17.23;;;2.90;99.90;;;;;;5066462;28;20021;-65
2023/01/20 11:19:54;;;;;;;43.80;16.50;;;3.00;99.90;;;;;;5066353;28;20083;-68
2023/01/20 11:22:44;;;;;;;46.22;18.15;;;3.00;99.90;;;;;;5065476;28;20115;-65
2023/01/20 11:25:23;;;;;;;46.90;17.35;;;3.00;99.90;;;;;;5067070;28;20029;-65
2023/01/20 11:27:50;;;;;;;41.65;18.02;;;3.00;99.90;;;;;;5067938;28;20021;-65
2023/01/20 11:30:26;;;;;;;45.30;18.08;;;3.00;99.90;;;;;;5066874;28;20021;-65
2023/01/20 11:33:20;;;;;;;41.20;17.42;;;3.00;99.90;;;;;;5055850;28;20514;-64
2023/01/20 11:36:03;;;;;;;42.33;16.95;;;3.00;99.90;;;;;;5053972;28;20102;-65
2023/01/20 11:38:40;;;;;;;37.08;15.60;;;3.10;99.90;;;;;;5053576;28;20025;-65
2023/01/20 11:41:21;;;;;;;35.83;14.77;;;3.10;99.90;;;;;;5053956;28;20045;-65
2023/01/20 11:43:48;;;;;;;35.53;15.40;;;3.10;99.90;;;;;;5052342;28;20025;-65
2023/01/20 11:46:23;;;;;;;40.03;16.80;;;3.20;99.90;;;;;;5054178;28;20035;-65
2023/01/20 11:48:49;;;;;;;36.67;15.45;;;3.20;99.90;;;;;;5054506;28;20017;-67
2023/01/20 11:51:20;;;;;;;41.47;16.17;;;3.30;99.90;;;;;;5052549;28;20039;-66
2023/01/20 11:53:45;;;;;;;42.97;17.52;;;3.30;99.90;;;;;;5054133;28;20021;-66
2023/01/20 11:56:24;;;;;;;40.30;17.55;;;3.40;99.90;;;;;;5053603;28;20104;-69
2023/01/20 11:59:00;;;;;;;35.15;15.02;;;3.40;99.90;;;;;;5053540;28;20345;-66
2023/01/20 12:02:00;;;;;;;37.45;15.50;;;3.50;99.90;;;;;;5051661;28;20094;-67
2023/01/20 12:04:47;;;;;;;35.00;16.80;;;3.40;99.90;;;;;;5053737;28;20036;-67
2023/01/20 12:07:21;;;;;;;35.50;14.80;;;3.50;99.90;;;;;;5053323;28;20431;-65
2023/01/20 12:09:52;;;;;;;32.65;14.63;;;3.50;99.90;;;;;;5052304;28;20060;-66
2023/01/20 12:12:41;;;;;;;36.37;14.77;;;3.60;99.90;;;;;;5051899;28;20029;-65
2023/01/20 12:15:30;;;;;;;37.67;15.73;;;3.50;99.90;;;;;;5053557;28;20032;-65
2023/01/20 12:18:16;;;;;;;36.15;15.77;;;3.50;99.90;;;;;;5053836;28;20386;-67
2023/01/20 12:20:55;;;;;;;32.80;15.13;;;3.50;99.90;;;;;;5051247;28;20049;-66
2023/01/20 12:23:59;;;;;;;32.65;13.52;;;3.50;99.90;;;;;;5052481;28;20048;-66
2023/01/20 12:26:27;;;;;;;33.45;14.05;;;3.40;99.90;;;;;;4998827;28;20041;-66
2023/01/20 12:29:35;;;;;;;34.33;15.18;;;3.40;99.90;;;;;;5046889;28;20078;-67
2023/01/20 12:32:02;;;;;;;30.17;13.40;;;3.40;99.90;;;;;;5051965;28;20063;-66
2023/01/20 12:34:29;;;;;;;33.72;15.02;;;3.40;99.90;;;;;;5051129;28;20024;-66
2023/01/20 12:37:16;;;;;;;36.45;16.00;;;3.40;99.90;;;;;;5041355;28;20391;-65
2023/01/20 12:40:09;;;;;;;40.17;18.60;;;3.40;99.90;;;;;;5053282;28;20021;-66
2023/01/20 12:42:38;;;;;;;32.45;14.63;;;3.40;99.90;;;;;;5059941;28;20051;-65
2023/01/20 12:45:34;;;;;;;31.85;14.55;;;3.30;99.90;;;;;;5072066;28;20082;-66
2023/01/20 12:48:24;;;;;;;27.20;12.50;;;3.30;99.90;;;;;;5072552;28;20036;-66
2023/01/20 12:50:56;;;;;;;36.05;16.15;;;3.40;99.90;;;;;;5072605;28;20047;-65
2023/01/20 12:53:43;;;;;;;32.05;14.48;;;3.40;99.90;;;;;;5072184;28;20441;-65
2023/01/20 12:56:13;;;;;;;32.70;14.40;;;3.40;99.90;;;;;;5072003;28;20055;-66
2023/01/20 12:58:55;;;;;;;32.20;14.70;;;3.50;99.90;;;;;;5069817;28;20461;-66
2023/01/20 13:01:40;;;;;;;34.47;15.30;;;3.50;99.90;;;;;;5051118;28;20087;-66
2023/01/20 13:04:28;;;;;;;31.98;14.98;;;3.60;99.90;;;;;;5052470;28;20021;-65
2023/01/20 13:07:04;;;;;;;34.38;14.52;;;3.60;99.90;;;;;;5052614;28;20365;-65
2023/01/20 13:09:53;;;;;;;34.47;15.30;;;3.60;99.90;;;;;;5050986;28;20025;-66
2023/01/20 13:12:33;;;;;;;31.40;16.23;;;3.70;99.90;;;;;;5050340;28;20025;-66
2023/01/20 13:15:15;;;;;;;36.78;17.98;;;3.70;99.90;;;;;;5052550;28;20031;-65
2023/01/20 13:18:16;;;;;;;36.58;16.02;;;3.70;99.90;;;;;;5052355;28;20029;-65
2023/01/20 13:20:46;;;;;;;36.53;16.23;;;3.70;99.90;;;;;;5047068;28;20048;-65
2023/01/20 13:23:22;;;;;;;31.95;15.20;;;3.80;99.90;;;;;;5050684;28;20021;-65
2023/01/20 13:25:49;;;;;;;33.33;14.90;;;3.80;99.90;;;;;;5051839;28;20021;-66
2023/01/20 13:28:26;;;;;;;28.33;13.55;;;3.80;99.90;;;;;;5052036;28;20017;-70
2023/01/20 13:30:53;;;;;;;28.77;13.80;;;3.80;99.90;;;;;;5051548;28;20027;-65
2023/01/20 13:33:33;;;;;;;28.45;15.10;;;3.80;99.90;;;;;;5049863;28;20443;-66
2023/01/20 13:36:15;;;;;;;27.65;14.25;;;3.80;99.90;;;;;;5052133;28;20017;-66
2023/01/20 13:38:41;;;;;;;27.27;14.52;;;3.80;99.90;;;;;;5052316;28;20114;-67
2023/01/20 13:41:08;;;;;;;31.77;14.18;;;3.70;99.90;;;;;;5049969;28;20049;-65
2023/01/20 13:43:43;;;;;;;26.15;13.18;;;3.70;99.90;;;;;;5050577;28;20021;-67
2023/01/20 13:46:08;;;;;;;24.73;12.30;;;3.60;99.90;;;;;;5051564;28;20033;-66
2023/01/20 13:48:36;;;;;;;26.63;13.15;;;3.60;99.90;;;;;;5051265;28;20035;-66
2023/01/20 13:51:20;;;;;;;27.05;12.43;;;3.60;99.90;;;;;;5050736;28;20074;-66
2023/01/20 13:53:46;;;;;;;23.67;12.00;;;3.60;99.90;;;;;;5051609;28;20021;-65
2023/01/20 13:56:34;;;;;;;24.65;11.70;;;3.50;99.90;;;;;;5050940;28;20477;-66
2023/01/20 13:58:59;;;;;;;21.63;11.35;;;3.50;99.90;;;;;;5051336;28;20021;-66
2023/01/20 14:01:26;;;;;;;24.30;12.82;;;3.50;99.90;;;;;;5050225;28;20033;-67
2023/01/20 14:04:15;;;;;;;21.08;11.13;;;3.50;99.90;;;;;;5050528;28;20027;-66
2023/01/20 14:06:46;;;;;;;21.48;10.57;;;3.50;99.90;;;;;;5051247;28;20063;-65
2023/01/20 14:09:23;;;;;;;20.75;10.18;;;3.60;99.90;;;;;;5051371;28;20046;-65
2023/01/20 14:11:54;;;;;;;23.40;11.30;;;3.60;99.90;;;;;;5049555;28;20033;-65
2023/01/20 14:14:23;;;;;;;23.83;12.07;;;3.60;99.90;;;;;;5050862;28;20088;-65
2023/01/20 14:16:48;;;;;;;22.20;11.73;;;3.60;99.90;;;;;;5051819;28;20093;-66
2023/01/20 14:19:29;;;;;;;25.02;13.00;;;3.60;99.90;;;;;;5050643;28;20469;-65
2023/01/20 14:21:58;;;;;;;20.38;11.07;;;3.60;99.90;;;;;;5051469;28;20036;-66
2023/01/20 14:24:29;;;;;;;22.52;10.93;;;3.60;99.90;;;;;;5049621;28;20082;-66
2023/01/20 14:27:36;;;;;;;21.60;11.10;;;3.60;99.90;;;;;;5050746;28;20124;-66
2023/01/20 14:30:20;;;;;;;19.85;10.57;;;3.60;99.90;;;;;;5028692;28;20045;-66
2023/01/20 14:32:46;;;;;;;20.92;10.65;;;3.60;99.90;;;;;;5045019;28;20033;-65
2023/01/20 14:35:33;;;;;;;21.42;11.15;;;3.60;99.90;;;;;;5049298;28;20025;-65
2023/01/20 14:37:59;;;;;;;20.10;11.38;;;3.50;99.90;;;;;;5050115;28;20084;-65
2023/01/20 14:40:30;;;;;;;15.27;9.27;;;3.50;99.90;;;;;;5050673;28;20061;-66
2023/01/20 14:43:12;;;;;;;17.65;8.85;;;3.50;99.90;;;;;;5049931;28;20025;-66
2023/01/20 14:45:42;;;;;;;18.80;9.63;;;3.50;99.90;;;;;;5049453;28;20494;-66
2023/01/20 14:48:10;;;;;;;20.50;10.95;;;3.50;99.90;;;;;;5051358;28;20021;-66
2023/01/20 14:50:37;;;;;;;18.85;10.23;;;3.50;99.90;;;;;;5050601;28;20028;-65
2023/01/20 14:53:03;;;;;;;17.88;10.50;;;3.50;99.90;;;;;;5048654;28;20029;-66
2023/01/20 14:55:39;;;;;;;21.52;10.65;;;3.50;99.90;;;;;;5050248;28;20052;-65
2023/01/20 14:58:18;;;;;;;21.95;11.10;;;3.50;99.90;;;;;;5041103;28;20551;-65
2023/01/20 15:00:58;;;;;;;22.58;11.73;;;3.50;99.90;;;;;;5049233;28;20116;-66
2023/01/20 15:03:29;;;;;;;19.05;11.40;;;3.50;99.90;;;;;;5050165;28;20017;-65
2023/01/20 15:06:01;;;;;;;21.55;10.73;;;3.50;99.90;;;;;;5050664;28;20033;-66
2023/01/20 15:08:33;;;;;;;23.08;11.15;;;3.50;99.90;;;;;;5052801;28;20096;-66
2023/01/20 15:11:17;;;;;;;21.63;11.77;;;3.50;99.90;;;;;;5052327;28;20032;-66
2023/01/20 15:13:52;;;;;;;24.98;12.20;;;3.50;99.90;;;;;;5052083;28;20037;-65
2023/01/20 15:16:25;;;;;;;23.42;11.63;;;3.50;99.90;;;;;;5053771;28;20095;-66
2023/01/20 15:19:12;;;;;;;25.42;11.48;;;3.40;99.90;;;;;;5054244;28;20079;-66
2023/01/20 15:21:59;;;;;;;22.67;11.35;;;3.40;99.90;;;;;;5051138;28;20052;-66
2023/01/20 15:24:31;;;;;;;24.65;13.07;;;3.40;99.90;;;;;;5041527;28;20119;-65
2023/01/20 15:26:59;;;;;;;26.88;12.77;;;3.40;99.90;;;;;;5052869;28;20033;-65
2023/01/20 15:29:30;;;;;;;27.27;13.13;;;3.40;99.90;;;;;;5053733;28;20067;-64
2023/01/20 15:31:58;;;;;;;25.35;11.70;;;3.40;99.90;;;;;;5054009;28;20025;-64
2023/01/20 15:34:25;;;;;;;23.95;12.88;;;3.40;99.90;;;;;;5053772;28;20052;-64
2023/01/20 15:36:52;;;;;;;28.45;13.30;;;3.40;99.90;;;;;;5053406;28;20438;-64
2023/01/20 15:39:23;;;;;;;25.63;12.68;;;3.30;99.90;;;;;;5051829;28;20025;-65
2023/01/20 15:41:52;;;;;;;21.77;11.70;;;3.40;99.90;;;;;;5052096;28;20478;-64
2023/01/20 15:44:18;;;;;;;21.10;12.18;;;3.30;99.90;;;;;;5052683;28;20451;-65
2023/01/20 15:46:44;;;;;;;29.80;13.65;;;3.40;99.90;;;;;;5053253;28;20525;-66
2023/01/20 15:49:10;;;;;;;24.42;12.57;;;3.40;99.90;;;;;;5051541;28;20063;-65
2023/01/20 15:51:36;;;;;;;23.50;11.77;;;3.40;99.90;;;;;;5052546;28;20024;-64
2023/01/20 15:54:02;;;;;;;23.88;11.98;;;3.30;99.90;;;;;;5054179;28;20025;-64
2023/01/20 15:56:29;;;;;;;28.95;14.90;;;3.40;99.90;;;;;;5052634;28;20017;-65
2023/01/20 15:58:56;;;;;;;25.77;13.63;;;3.40;99.90;;;;;;5054095;28;20053;-67
2023/01/20 16:01:23;;;;;;;27.30;14.10;;;3.30;99.90;;;;;;5053870;28;20120;-65
2023/01/20 16:03:50;;;;;;;30.25;14.98;;;3.40;99.90;;;;;;5053461;28;20119;-65
2023/01/20 16:06:18;;;;;;;31.42;14.80;;;3.30;99.90;;;;;;5054039;28;20029;-65
2023/01/20 16:08:46;;;;;;;30.77;15.65;;;3.30;99.90;;;;;;5052682;28;20021;-65
2023/01/20 16:11:13;;;;;;;31.52;15.80;;;3.30;99.90;;;;;;5052119;28;20436;-66
2023/01/20 16:13:39;;;;;;;30.20;14.93;;;3.30;99.90;;;;;;5053279;28;20021;-65
2023/01/20 16:16:13;;;;;;;29.73;15.57;;;3.30;99.90;;;;;;5049816;28;20108;-65
2023/01/20 16:18:39;;;;;;;30.08;15.23;;;3.30;99.90;;;;;;5034744;28;20049;-69
2023/01/20 16:21:06;;;;;;;38.28;18.02;;;3.30;99.90;;;;;;5050304;28;20053;-66
2023/01/20 16:23:31;;;;;;;32.40;16.67;;;3.20;99.90;;;;;;5051276;28;20528;-66
2023/01/20 16:25:57;;;;;;;36.65;17.50;;;3.20;99.90;;;;;;5052598;28;20056;-65
2023/01/20 16:28:23;;;;;;;34.03;16.67;;;3.20;99.90;;;;;;5051697;28;20117;-66
2023/01/20 16:30:52;;;;;;;35.13;15.73;;;3.10;99.90;;;;;;5051284;28;20025;-65
2023/01/20 16:33:25;;;;;;;34.00;17.38;;;3.10;99.90;;;;;;5052035;28;20021;-65
2023/01/20 16:35:55;;;;;;;36.03;17.15;;;3.00;99.90;;;;;;5052575;28;20029;-65
2023/01/20 16:38:23;;;;;;;39.30;16.60;;;2.90;99.90;;;;;;5050728;28;20477;-65
2023/01/20 16:40:51;;;;;;;38.05;17.40;;;2.80;99.90;;;;;;5051711;28;20028;-66
2023/01/20 16:43:18;;;;;;;36.47;16.90;;;2.70;99.90;;;;;;5052352;28;20017;-66
2023/01/20 16:45:53;;;;;;;31.92;15.55;;;2.50;99.90;;;;;;5050358;28;20496;-67
2023/01/20 16:48:20;;;;;;;34.13;15.65;;;2.40;99.90;;;;;;5049115;28;20505;-65
2023/01/20 16:50:46;;;;;;;35.20;16.20;;;2.20;99.90;;;;;;5049475;28;20074;-65
2023/01/20 16:53:12;;;;;;;33.72;14.73;;;2.10;99.90;;;;;;5049863;28;20029;-64
2023/01/20 16:55:39;;;;;;;32.92;16.20;;;2.00;99.90;;;;;;5051463;28;20029;-66
2023/01/20 16:58:07;;;;;;;32.95;15.20;;;2.00;99.90;;;;;;5048855;28;20136;-65
2023/01/20 17:00:33;;;;;;;31.45;15.93;;;1.90;99.90;;;;;;5048594;28;20390;-68
2023/01/20 17:02:59;;;;;;;31.27;15.07;;;1.80;99.90;;;;;;5051598;28;20025;-65
2023/01/20 17:05:26;;;;;;;32.13;14.20;;;1.70;99.90;;;;;;5049697;28;20040;-68
2023/01/20 17:07:54;;;;;;;31.67;15.73;;;1.70;99.90;;;;;;5049756;28;20028;-67
2023/01/20 17:10:19;;;;;;;34.67;15.57;;;1.60;99.90;;;;;;5049331;28;20107;-67
2023/01/20 17:12:45;;;;;;;33.90;14.48;;;1.50;99.90;;;;;;5049821;28;20108;-68
2023/01/20 17:15:11;;;;;;;34.55;14.30;;;1.50;99.90;;;;;;5051177;28;20496;-67
2023/01/20 17:17:37;;;;;;;31.63;15.50;;;1.40;99.90;;;;;;5050286;28;20113;-67
2023/01/20 17:20:08;;;;;;;37.00;15.00;;;1.40;99.90;;;;;;5050471;28;20045;-67
2023/01/20 17:22:37;;;;;;;;;;;1.40;99.90;;;;;;5049460;28;20072;-67
2023/01/20 17:25:05;;;;;;;33.60;16.33;;;1.40;99.90;;;;;;5051126;28;19995;-67
2023/01/20 17:27:30;;;;;;;37.83;15.82;;;1.30;99.90;;;;;;5049351;28;20025;-69
2023/01/20 17:29:56;;;;;;;35.75;16.80;;;1.30;99.90;;;;;;5049194;28;20079;-69
2023/01/20 17:32:21;;;;;;;33.42;16.15;;;1.20;99.90;;;;;;5049448;28;20025;-68
2023/01/20 17:34:47;;;;;;;32.92;15.85;;;1.20;99.90;;;;;;5049223;28;20551;-66
2023/01/20 17:37:13;;;;;;;35.70;16.27;;;1.20;99.90;;;;;;5033082;28;20096;-67
2023/01/20 17:39:39;;;;;;;38.45;17.85;;;1.20;99.90;;;;;;5050589;28;20017;-67
2023/01/20 17:42:04;;;;;;;37.35;16.90;;;1.20;99.90;;;;;;5049856;28;20100;-65
2023/01/20 17:44:30;;;;;;;40.35;16.65;;;1.20;99.90;;;;;;5049627;28;20071;-66
2023/01/20 17:46:55;;;;;;;41.53;17.88;;;1.10;99.90;;;;;;5050534;28;20402;-66
2023/01/20 17:49:21;;;;;;;39.33;18.35;;;1.10;99.90;;;;;;5050248;28;20029;-65
2023/01/20 17:51:47;;;;;;;38.13;16.33;;;1.10;99.90;;;;;;5050515;28;20075;-67
2023/01/20 17:54:12;;;;;;;35.17;17.27;;;1.10;99.90;;;;;;5050189;28;20031;-68
2023/01/20 17:56:38;;;;;;;36.20;15.57;;;1.00;99.90;;;;;;5049787;28;20035;-67
2023/01/20 17:59:04;;;;;;;32.92;13.98;;;1.00;99.90;;;;;;5049184;28;20020;-67
2023/01/20 18:01:31;;;;;;;39.45;15.77;;;1.00;99.90;;;;;;5048841;28;20099;-67
2023/01/20 18:03:58;;;;;;;30.20;13.80;;;0.90;99.90;;;;;;5049925;28;20020;-68
2023/01/20 18:06:25;;;;;;;35.72;15.32;;;0.90;99.90;;;;;;5050572;28;20538;-67
2023/01/20 18:08:56;;;;;;;34.08;16.30;;;0.90;99.90;;;;;;5049208;28;20021;-67
2023/01/20 18:11:23;;;;;;;34.10;14.65;;;0.90;99.90;;;;;;5051140;28;20488;-66
2023/01/20 18:13:51;;;;;;;35.05;15.40;;;0.80;99.90;;;;;;5049393;28;20067;-65
2023/01/20 18:16:18;;;;;;;36.60;16.40;;;0.80;99.90;;;;;;5050471;28;20028;-66
2023/01/20 18:18:45;;;;;;;40.25;16.73;;;0.80;99.90;;;;;;5040089;28;20026;-65
2023/01/20 18:21:17;;;;;;;40.97;18.00;;;0.80;99.90;;;;;;5030464;28;20049;-66
2023/01/20 18:23:43;;;;;;;35.13;16.13;;;0.80;99.90;;;;;;5041651;28;20108;-65
2023/01/20 18:26:10;;;;;;;39.63;16.13;;;0.80;99.90;;;;;;5049046;28;20024;-66
2023/01/20 18:28:36;;;;;;;37.22;16.88;;;0.70;99.90;;;;;;5048368;28;20025;-66
2023/01/20 18:31:07;;;;;;;36.38;16.08;;;0.70;99.90;;;;;;5048600;28;20036;-65
2023/01/20 18:33:40;;;;;;;32.10;15.15;;;0.70;99.90;;;;;;5049168;28;20021;-66
2023/01/20 18:36:12;;;;;;;35.42;15.48;;;0.70;99.90;;;;;;5050533;28;20094;-67
2023/01/20 18:38:44;;;;;;;41.65;17.98;;;0.70;99.90;;;;;;5047744;28;20499;-66
2023/01/20 18:41:11;;;;;;;41.72;18.08;;;0.60;99.90;;;;;;5050129;28;20037;-68
2023/01/20 18:43:37;;;;;;;39.28;19.08;;;0.70;99.90;;;;;;5053310;28;20086;-64
2023/01/20 18:46:03;;;;;;;38.65;18.13;;;0.60;99.90;;;;;;5053468;28;20493;-65
2023/01/20 18:48:29;;;;;;;39.67;17.90;;;0.60;99.90;;;;;;5052988;28;20036;-65
2023/01/20 18:51:01;;;;;;;39.22;19.15;;;0.60;99.90;;;;;;5052884;28;20025;-64
2023/01/20 18:53:27;;;;;;;41.08;18.17;;;0.60;99.90;;;;;;5052625;28;20433;-65
2023/01/20 18:56:01;;;;;;;38.10;17.60;;;0.60;99.90;;;;;;5051935;28;20102;-67
2023/01/20 18:58:27;;;;;;;40.45;16.17;;;0.60;99.90;;;;;;5052452;28;20096;-67
2023/01/20 19:01:03;;;;;;;41.72;16.42;;;0.60;99.90;;;;;;5053248;28;20041;-67
2023/01/20 19:03:30;;;;;;;38.33;16.95;;;0.50;99.90;;;;;;5052877;28;20497;-67
2023/01/20 19:06:06;;;;;;;36.25;16.52;;;0.50;99.90;;;;;;5049108;28;20039;-68
2023/01/20 19:08:33;;;;;;;45.00;17.08;;;0.40;99.90;;;;;;5053229;28;20496;-68
2023/01/20 19:11:00;;;;;;;34.40;16.80;;;0.40;99.90;;;;;;5054263;28;20083;-68
2023/01/20 19:13:26;;;;;;;37.72;17.00;;;0.40;99.90;;;;;;5052851;28;20017;-66
2023/01/20 19:15:52;;;;;;;36.40;17.25;;;0.40;99.90;;;;;;5053578;28;20159;-65
2023/01/20 19:18:18;;;;;;;36.05;16.50;;;0.40;99.90;;;;;;5053199;28;20100;-65
2023/01/20 19:20:44;;;;;;;36.88;15.93;;;0.40;99.90;;;;;;5053035;28;20053;-65
2023/01/20 19:23:09;;;;;;;33.67;15.73;;;0.40;99.90;;;;;;5053971;28;20017;-64
2023/01/20 19:25:35;;;;;;;41.88;17.63;;;0.30;99.90;;;;;;5051438;28;20033;-65
2023/01/20 19:28:00;;;;;;;43.67;18.13;;;0.30;99.90;;;;;;5052241;28;20497;-65
2023/01/20 19:30:27;;;;;;;45.70;17.77;;;0.30;99.90;;;;;;5053396;28;20039;-65
2023/01/20 19:32:53;;;;;;;43.55;18.25;;;0.30;99.90;;;;;;5053648;28;20017;-66
2023/01/20 19:35:20;;;;;;;34.85;16.58;;;0.30;99.90;;;;;;5056585;28;20082;-68
2023/01/20 19:37:45;;;;;;;38.03;16.88;;;0.30;99.90;;;;;;5057454;28;20111;-68
2023/01/20 19:40:12;;;;;;;37.97;16.77;;;0.30;99.90;;;;;;5052130;28;20124;-67
2023/01/20 19:42:37;;;;;;;45.88;17.90;;;0.30;99.90;;;;;;5062970;28;20075;-67
2023/01/20 19:45:04;;;;;;;41.15;17.92;;;0.30;99.90;;;;;;5053319;28;20029;-65
2023/01/20 19:47:32;;;;;;;37.13;16.25;;;0.30;99.90;;;;;;5050877;28;20017;-65
2023/01/20 19:49:58;;;;;;;40.92;17.20;;;0.40;99.90;;;;;;5051301;28;20534;-65
2023/01/20 19:52:25;;;;;;;38.45;16.98;;;0.40;99.90;;;;;;5051754;28;20503;-66
2023/01/20 19:54:50;;;;;;;44.05;18.70;;;0.40;99.90;;;;;;5052572;28;20164;-64
2023/01/20 19:57:17;;;;;;;36.85;16.83;;;0.30;99.90;;;;;;5051721;28;20066;-65
2023/01/20 19:59:43;;;;;;;40.20;15.93;;;0.30;99.90;;;;;;5052229;28;20082;-64
2023/01/20 20:02:09;;;;;;;40.45;16.17;;;0.30;99.90;;;;;;5050428;28;20041;-64
2023/01/20 20:04:34;;;;;;;44.35;17.83;;;0.30;99.90;;;;;;5050292;28;20104;-65
2023/01/20 20:07:00;;;;;;;38.08;17.77;;;0.30;99.90;;;;;;5050696;28;20056;-66
2023/01/20 20:09:26;;;;;;;35.95;17.67;;;0.30;99.90;;;;;;5052210;28;20014;-66
2023/01/20 20:11:52;;;;;;;36.85;16.65;;;0.30;99.90;;;;;;5053971;28;20389;-66
2023/01/20 20:14:20;;;;;;;36.63;17.77;;;0.20;99.90;;;;;;5053715;28;20020;-66
2023/01/20 20:16:47;;;;;;;34.30;15.70;;;0.20;99.90;;;;;;5053409;28;20021;-65
2023/01/20 20:19:15;;;;;;;42.63;19.10;;;0.20;99.90;;;;;;5053059;28;20147;-66
2023/01/20 20:21:41;;;;;;;42.22;19.00;;;0.20;99.90;;;;;;5053315;28;20048;-66
2023/01/20 20:24:10;;;;;;;41.00;17.25;;;0.20;99.90;;;;;;5038275;28;20103;-66
2023/01/20 20:26:38;;;;;;;40.47;17.13;;;0.20;99.90;;;;;;5033534;28;20163;-66
2023/01/20 20:29:05;;;;;;;42.35;18.30;;;0.20;99.90;;;;;;5033870;28;20022;-65
2023/01/20 20:31:32;;;;;;;63.70;26.65;;;0.20;99.90;;;;;;5033003;28;20126;-66
2023/01/20 20:34:00;;;;;;;52.58;22.85;;;0.10;99.90;;;;;;5032769;28;20584;-65
2023/01/20 20:36:30;;;;;;;45.67;18.80;;;0.10;99.90;;;;;;5032264;28;20394;-65
2023/01/20 20:38:57;;;;;;;51.70;21.23;;;0.10;99.90;;;;;;5033142;28;20079;-66
2023/01/20 20:41:26;;;;;;;43.80;19.92;;;0.10;99.90;;;;;;5032676;28;20029;-65
2023/01/20 20:43:52;;;;;;;45.30;20.30;;;0.10;99.90;;;;;;5041781;28;20029;-65
2023/01/20 20:46:18;;;;;;;38.45;18.08;;;0.10;99.90;;;;;;5053516;28;20523;-65
2023/01/20 20:48:44;;;;;;;45.88;21.75;;;0.00;99.90;;;;;;5052094;28;20025;-65
2023/01/20 20:51:12;;;;;;;56.33;25.60;;;0.00;99.90;;;;;;5052966;28;20440;-65
2023/01/20 20:53:39;;;;;;;52.28;23.10;;;-0.10;99.90;;;;;;5053036;28;20033;-64
2023/01/20 20:56:07;;;;;;;48.75;20.90;;;-0.10;99.90;;;;;;5053252;28;20502;-65
2023/01/20 20:58:33;;;;;;;49.47;20.52;;;-0.10;99.90;;;;;;5051066;28;20021;-64
2023/01/20 21:01:07;;;;;;;41.42;18.85;;;-0.10;99.90;;;;;;5053165;28;20036;-65
2023/01/20 21:03:33;;;;;;;37.03;16.50;;;0.00;99.90;;;;;;5052641;28;20040;-65
2023/01/20 21:06:00;;;;;;;36.03;17.23;;;-0.10;99.90;;;;;;5051903;28;20100;-66
2023/01/20 21:08:27;;;;;;;40.05;18.33;;;-0.10;99.90;;;;;;5052320;28;20059;-66
2023/01/20 21:10:53;;;;;;;41.95;20.13;;;-0.10;99.90;;;;;;5051472;28;20517;-66
2023/01/20 21:13:19;;;;;;;36.47;16.02;;;0.00;99.90;;;;;;5052158;28;20052;-65
2023/01/20 21:16:00;;;;;;;39.45;16.33;;;0.00;99.90;;;;;;5052833;28;20021;-65
2023/01/20 21:18:32;;;;;;;40.28;17.98;;;0.00;99.90;;;;;;5053013;28;20403;-65
2023/01/20 21:21:00;;;;;;;35.78;16.77;;;0.00;99.90;;;;;;5052071;28;20048;-65
2023/01/20 21:23:27;;;;;;;44.20;20.48;;;0.00;99.90;;;;;;5051181;28;20032;-65
2023/01/20 21:25:52;;;;;;;39.00;18.48;;;0.00;99.90;;;;;;5052156;28;20029;-65
2023/01/20 21:28:19;;;;;;;40.30;17.40;;;0.00;99.90;;;;;;5052335;28;20070;-65
2023/01/20 21:30:45;;;;;;;34.17;15.25;;;0.00;99.90;;;;;;5052663;28;20026;-65
2023/01/20 21:33:16;;;;;;;40.97;17.95;;;0.00;99.90;;;;;;5052029;28;20537;-65
2023/01/20 21:35:43;;;;;;;38.28;16.42;;;-0.10;99.90;;;;;;5051120;28;20033;-66
2023/01/20 21:38:09;;;;;;;36.25;16.05;;;0.00;99.90;;;;;;5051976;28;20426;-66
2023/01/20 21:40:35;;;;;;;38.13;16.15;;;-0.10;99.90;;;;;;5050334;28;20112;-66
2023/01/20 21:45:55;;;;;;;38.60;16.83;;;-0.10;99.90;;;;;;5043893;28;20033;-65
2023/01/20 21:53:53;;;;;;;44.92;18.23;;;0.00;99.90;;;;;;5052200;28;20028;-65
2023/01/20 21:56:19;;;;;;;35.95;16.80;;;-0.10;99.90;;;;;;5050390;28;20025;-65
2023/01/20 21:58:45;;;;;;;35.28;17.52;;;-0.10;99.90;;;;;;5050779;28;20496;-65
2023/01/20 22:01:10;;;;;;;38.53;18.10;;;-0.10;99.90;;;;;;5051604;28;20155;-65
2023/01/20 22:03:36;;;;;;;41.80;18.30;;;-0.10;99.90;;;;;;5050061;28;20394;-65
2023/01/20 22:06:03;;;;;;;45.53;20.63;;;-0.20;99.90;;;;;;5052099;28;20040;-65
2023/01/20 22:08:29;;;;;;;40.40;17.77;;;-0.20;99.90;;;;;;5049997;28;20039;-64
2023/01/20 22:11:00;;;;;;;41.15;18.85;;;-0.20;99.90;;;;;;5050841;28;20120;-65
2023/01/20 22:13:26;;;;;;;;;;;-0.20;99.90;;;;;;5052125;28;20471;-65
2023/01/20 22:15:51;;;;;;;41.45;18.33;;;-0.20;99.90;;;;;;5051638;28;19908;-65
2023/01/20 22:18:17;;;;;;;45.78;19.52;;;-0.30;99.90;;;;;;5052061;28;20389;-65
2023/01/20 22:20:42;;;;;;;46.42;20.02;;;-0.30;99.90;;;;;;5051968;28;20092;-65
2023/01/20 22:23:08;;;;;;;42.40;19.92;;;-0.30;99.90;;;;;;5044913;28;20017;-64
2023/01/20 22:25:35;;;;;;;50.33;21.48;;;-0.20;99.90;;;;;;5031473;28;20030;-65
2023/01/20 22:28:00;;;;;;;46.65;20.77;;;-0.20;99.90;;;;;;5030655;28;20087;-65
2023/01/20 22:30:26;;;;;;;46.67;20.23;;;-0.30;99.90;;;;;;5030967;28;20021;-65
2023/01/20 22:32:52;;;;;;;48.25;21.25;;;-0.30;99.90;;;;;;5032195;28;20026;-65
2023/01/20 22:35:17;;;;;;;50.90;23.52;;;-0.30;99.90;;;;;;5031711;28;20037;-65
2023/01/20 22:37:43;;;;;;;47.47;20.13;;;-0.30;99.90;;;;;;5031432;28;20021;-65
2023/01/20 22:40:09;;;;;;;52.67;21.67;;;-0.30;99.90;;;;;;5031790;28;20022;-65
2023/01/20 22:42:35;;;;;;;45.88;21.45;;;-0.30;99.90;;;;;;5031986;28;20745;-65
2023/01/20 22:45:01;;;;;;;47.45;21.70;;;-0.40;99.90;;;;;;5031403;28;20045;-65
2023/01/20 22:47:27;;;;;;;53.20;21.60;;;-0.30;99.90;;;;;;5031596;28;20026;-65
2023/01/20 22:49:55;;;;;;;48.10;21.80;;;-0.30;99.90;;;;;;5031702;28;20101;-65
2023/01/20 22:52:22;;;;;;;48.95;22.02;;;-0.40;99.90;;;;;;5046670;28;20025;-65
2023/01/20 22:54:47;;;;;;;57.33;23.45;;;-0.30;99.90;;;;;;5031942;28;20103;-65
2023/01/20 22:57:13;;;;;;;53.63;23.63;;;-0.40;99.90;;;;;;5030848;28;20474;-65
2023/01/20 22:59:39;;;;;;;44.60;19.95;;;-0.40;99.90;;;;;;5031690;28;20101;-64
2023/01/20 23:02:04;;;;;;;49.05;21.38;;;-0.40;99.90;;;;;;5032251;28;20375;-64
2023/01/20 23:04:30;;;;;;;54.00;22.50;;;-0.40;99.90;;;;;;5029769;28;20508;-65
2023/01/20 23:06:56;;;;;;;50.63;20.67;;;-0.40;99.90;;;;;;5031670;28;20049;-65
2023/01/20 23:09:21;;;;;;;47.60;21.85;;;-0.40;99.90;;;;;;5031933;28;20025;-65
2023/01/20 23:11:48;;;;;;;45.53;21.10;;;-0.40;99.90;;;;;;5031222;28;20029;-64
2023/01/20 23:14:13;;;;;;;50.00;22.73;;;-0.50;99.90;;;;;;5031944;28;20032;-64
